createdAt,value
2023-05-14T00:01:28.410Z,55.99
2023-05-14T00:03:56.422Z,56.04
2023-05-14T00:06:24.306Z,55.75
2023-05-14T00:08:53.505Z,56.11
2023-05-14T00:11:22.136Z,56.18
2023-05-14T00:13:50.404Z,55.89
2023-05-14T00:16:18.352Z,56.00
2023-05-14T00:18:46.381Z,56.32
2023-05-14T00:21:14.294Z,56.06
2023-05-14T00:23:42.184Z,56.39
2023-05-14T00:26:11.372Z,56.54
2023-05-14T00:28:39.977Z,56.72
2023-05-14T00:31:07.814Z,56.68
2023-05-14T00:33:36.216Z,56.12
2023-05-14T00:36:04.341Z,56.54
2023-05-14T00:38:32.226Z,56.21
2023-05-14T00:41:00.091Z,56.44
2023-05-14T00:43:29.336Z,56.32
2023-05-14T00:45:57.312Z,56.09
2023-05-14T00:48:25.896Z,55.68
2023-05-14T00:50:53.826Z,54.78
2023-05-14T00:53:21.883Z,54.72
2023-05-14T00:55:50.783Z,54.67
2023-05-14T00:58:19.073Z,54.84
2023-05-14T01:00:48.560Z,54.83
2023-05-14T01:03:16.709Z,54.92
2023-05-14T01:05:52.565Z,55.45
2023-05-14T01:08:28.869Z,55.04
2023-05-14T01:11:02.016Z,55.11
2023-05-14T01:13:34.990Z,55.45
2023-05-14T01:16:05.650Z,55.38
2023-05-14T01:18:34.420Z,55.34
2023-05-14T01:21:02.934Z,55.13
2023-05-14T01:23:32.254Z,54.48
2023-05-14T01:26:00.092Z,54.89
2023-05-14T01:28:30.575Z,54.39
2023-05-14T01:31:01.813Z,54.57
2023-05-14T01:33:30.518Z,55.07
2023-05-14T01:35:58.811Z,54.44
2023-05-14T01:38:27.517Z,54.82
2023-05-14T01:40:57.945Z,54.47
2023-05-14T01:43:25.932Z,54.40
2023-05-14T01:45:55.264Z,54.84
2023-05-14T01:48:23.573Z,54.75
2023-05-14T01:50:52.387Z,54.54
2023-05-14T01:53:20.599Z,54.47
2023-05-14T01:55:48.469Z,54.52
2023-05-14T01:58:17.734Z,54.82
2023-05-14T02:00:45.595Z,54.43
2023-05-14T02:03:13.529Z,54.79
2023-05-14T02:05:41.647Z,54.11
2023-05-14T02:08:09.482Z,54.16
2023-05-14T02:10:37.451Z,54.08
2023-05-14T02:13:05.386Z,54.04
2023-05-14T02:15:34.634Z,53.69
2023-05-14T02:18:02.602Z,53.48
2023-05-14T02:20:30.657Z,53.20
2023-05-14T02:22:58.609Z,52.42
2023-05-14T02:25:26.410Z,52.37
2023-05-14T02:27:54.378Z,51.95
2023-05-14T02:30:25.214Z,52.15
2023-05-14T02:32:54.996Z,51.72
2023-05-14T02:35:22.931Z,52.31
2023-05-14T02:37:50.800Z,51.76
2023-05-14T02:40:18.879Z,51.63
2023-05-14T02:42:46.713Z,51.57
2023-05-14T02:45:14.589Z,52.10
2023-05-14T02:47:43.521Z,51.48
2023-05-14T02:50:12.897Z,51.75
2023-05-14T02:52:40.786Z,51.71
2023-05-14T02:55:09.418Z,51.04
2023-05-14T02:57:37.470Z,51.25
2023-05-14T03:00:06.588Z,51.22
2023-05-14T03:02:35.726Z,51.11
2023-05-14T03:05:04.310Z,51.09
2023-05-14T03:07:33.587Z,50.84
2023-05-14T03:10:01.582Z,50.74
2023-05-14T03:12:29.664Z,50.66
2023-05-14T03:14:57.541Z,50.67
2023-05-14T03:17:25.466Z,50.74
2023-05-14T03:19:53.357Z,50.26
2023-05-14T03:22:21.316Z,50.64
2023-05-14T03:24:50.794Z,50.31
2023-05-14T03:27:18.746Z,49.92
2023-05-14T03:29:46.604Z,50.14
2023-05-14T03:32:14.494Z,50.28
2023-05-14T03:34:42.703Z,50.14
2023-05-14T03:37:10.934Z,49.98
2023-05-14T03:39:38.819Z,49.91
2023-05-14T03:42:08.290Z,50.02
2023-05-14T03:44:36.274Z,50.09
2023-05-14T03:47:05.161Z,49.89
2023-05-14T03:49:33.171Z,49.78
2023-05-14T03:52:01.257Z,49.81
2023-05-14T03:54:29.118Z,49.66
2023-05-14T03:56:56.930Z,49.82
2023-05-14T03:59:26.151Z,49.93
2023-05-14T04:01:54.991Z,49.77
2023-05-14T04:04:22.981Z,49.79
2023-05-14T04:06:50.820Z,49.77
2023-05-14T04:09:18.665Z,49.77
2023-05-14T04:11:46.596Z,50.07
2023-05-14T04:14:14.497Z,50.06
2023-05-14T04:16:45.133Z,49.79
2023-05-14T04:19:13.183Z,49.97
2023-05-14T04:21:41.186Z,49.94
2023-05-14T04:24:09.307Z,50.10
2023-05-14T04:26:37.268Z,49.70
2023-05-14T04:29:05.106Z,50.34
2023-05-14T04:31:33.036Z,49.44
2023-05-14T04:34:02.296Z,49.97
2023-05-14T04:36:30.133Z,50.13
2023-05-14T04:38:57.963Z,50.27
2023-05-14T04:41:26.163Z,50.14
2023-05-14T04:43:57.107Z,49.55
2023-05-14T04:46:24.963Z,49.78
2023-05-14T04:48:52.912Z,49.94
2023-05-14T04:51:22.206Z,50.07
2023-05-14T04:53:50.145Z,49.67
2023-05-14T04:56:18.044Z,49.89
2023-05-14T04:58:45.915Z,49.26
2023-05-14T05:01:13.857Z,48.94
2023-05-14T05:03:41.896Z,48.70
2023-05-14T05:06:09.781Z,48.97
2023-05-14T05:08:38.984Z,48.56
2023-05-14T05:11:06.905Z,47.96
2023-05-14T05:13:34.738Z,47.89
2023-05-14T05:16:03.629Z,47.80
2023-05-14T05:18:31.520Z,48.73
2023-05-14T05:20:59.348Z,48.03
2023-05-14T05:23:27.234Z,47.78
2023-05-14T05:25:56.428Z,47.30
2023-05-14T05:28:24.307Z,47.60
2023-05-14T05:30:52.162Z,47.54
2023-05-14T05:33:20.060Z,47.82
2023-05-14T05:35:48.310Z,47.18
2023-05-14T05:38:18.138Z,47.65
2023-05-14T05:40:46.016Z,47.06
2023-05-14T05:43:16.073Z,46.97
2023-05-14T05:45:43.986Z,46.93
2023-05-14T05:48:12.018Z,46.71
2023-05-14T05:50:42.141Z,46.91
2023-05-14T05:53:10.125Z,46.62
2023-05-14T05:55:38.029Z,46.87
2023-05-14T05:58:05.886Z,46.52
2023-05-14T06:00:35.202Z,46.32
2023-05-14T06:03:03.062Z,46.08
2023-05-14T06:05:31.082Z,46.07
2023-05-14T06:07:58.994Z,46.17
2023-05-14T06:10:26.804Z,46.13
2023-05-14T06:12:54.613Z,46.30
2023-05-14T06:15:22.429Z,45.93
2023-05-14T06:17:51.656Z,46.49
2023-05-14T06:20:20.057Z,46.09
2023-05-14T06:22:47.949Z,46.39
2023-05-14T06:25:16.017Z,46.39
2023-05-14T06:27:44.045Z,46.10
2023-05-14T06:30:13.126Z,46.60
2023-05-14T06:32:41.058Z,46.37
2023-05-14T06:35:12.777Z,45.85
2023-05-14T06:37:40.624Z,45.73
2023-05-14T06:40:09.484Z,45.45
2023-05-14T06:42:37.326Z,46.08
2023-05-14T06:45:06.981Z,46.09
2023-05-14T06:47:34.985Z,46.18
2023-05-14T06:50:03.122Z,46.08
2023-05-14T06:52:32.778Z,46.03
2023-05-14T06:55:01.063Z,45.58
2023-05-14T06:57:28.980Z,45.28
2023-05-14T06:59:57.465Z,45.06
2023-05-14T07:02:25.300Z,45.59
2023-05-14T07:04:53.431Z,45.72
2023-05-14T07:07:21.437Z,45.46
2023-05-14T07:09:50.991Z,45.21
2023-05-14T07:12:18.864Z,44.94
2023-05-14T07:14:46.714Z,45.03
2023-05-14T07:17:14.695Z,44.21
2023-05-14T07:19:42.783Z,44.57
2023-05-14T07:22:10.602Z,43.91
2023-05-14T07:24:38.433Z,43.27
2023-05-14T07:27:08.471Z,44.04
2023-05-14T07:29:36.460Z,43.38
2023-05-14T07:32:04.620Z,42.06
2023-05-14T07:34:32.548Z,40.53
2023-05-14T07:37:01.176Z,40.71
2023-05-14T07:39:29.075Z,40.79
2023-05-14T07:41:56.918Z,40.37
2023-05-14T07:44:26.202Z,40.18
2023-05-14T07:46:54.182Z,39.43
2023-05-14T07:49:22.027Z,39.54
2023-05-14T07:51:49.892Z,37.93
2023-05-14T07:54:17.853Z,37.58
2023-05-14T07:56:45.848Z,37.22
2023-05-14T07:59:13.720Z,37.43
2023-05-14T08:01:43.074Z,37.24
2023-05-14T08:04:11.814Z,37.39
2023-05-14T08:06:39.722Z,36.91
2023-05-14T08:09:08.651Z,36.47
2023-05-14T08:11:36.486Z,36.53
2023-05-14T08:14:04.316Z,36.46
2023-05-14T08:16:32.241Z,36.87
2023-05-14T08:19:01.518Z,35.85
2023-05-14T08:21:29.369Z,34.91
2023-05-14T08:23:57.203Z,35.67
2023-05-14T08:26:25.836Z,35.72
2023-05-14T08:28:54.220Z,35.40
2023-05-14T08:31:22.225Z,35.23
2023-05-14T08:33:50.601Z,35.31
2023-05-14T08:36:19.803Z,35.43
2023-05-14T08:38:48.464Z,34.42
2023-05-14T08:41:16.736Z,33.73
2023-05-14T08:43:46.764Z,34.40
2023-05-14T08:46:15.853Z,34.95
2023-05-14T08:48:44.360Z,34.51
2023-05-14T08:51:12.225Z,33.05
2023-05-14T08:53:41.569Z,32.42
2023-05-14T08:56:09.744Z,33.27
2023-05-14T08:58:37.558Z,34.32
2023-05-14T09:01:05.697Z,33.80
2023-05-14T09:03:33.941Z,32.01
2023-05-14T09:06:02.103Z,31.75
2023-05-14T09:08:30.531Z,30.82
2023-05-14T09:10:59.738Z,28.17
2023-05-14T09:13:28.418Z,27.62
2023-05-14T09:15:56.728Z,27.17
2023-05-14T09:18:24.654Z,26.58
2023-05-14T09:20:53.064Z,26.78
2023-05-14T09:23:21.048Z,26.72
2023-05-14T09:25:49.757Z,25.33
2023-05-14T09:28:21.187Z,23.74
2023-05-14T09:30:52.088Z,22.95
2023-05-14T09:33:27.746Z,23.79
2023-05-14T09:35:59.073Z,23.88
2023-05-14T09:38:29.971Z,25.81
2023-05-14T09:40:58.034Z,24.56
2023-05-14T09:43:27.340Z,23.34
2023-05-14T09:45:55.225Z,23.53
2023-05-14T09:48:23.184Z,24.40
2023-05-14T09:50:52.090Z,24.26
2023-05-14T09:53:20.036Z,25.10
2023-05-14T09:55:49.232Z,22.56
2023-05-14T09:58:17.218Z,20.76
2023-05-14T10:00:47.699Z,22.91
2023-05-14T10:03:18.784Z,25.58
2023-05-14T10:05:50.060Z,26.92
2023-05-14T10:08:22.728Z,26.92
2023-05-14T10:10:51.848Z,25.97
2023-05-14T10:13:21.944Z,25.68
2023-05-14T10:15:58.116Z,25.23
2023-05-14T10:18:26.394Z,27.21
2023-05-14T10:20:58.697Z,28.71
2023-05-14T10:23:26.667Z,29.68
2023-05-14T10:25:54.658Z,29.89
2023-05-14T10:28:22.597Z,28.15
2023-05-14T10:30:51.942Z,25.49
2023-05-14T10:33:20.291Z,23.20
2023-05-14T10:35:59.408Z,24.61
2023-05-14T10:38:28.407Z,27.22
2023-05-14T10:40:58.835Z,29.12
2023-05-14T10:43:28.963Z,30.43
2023-05-14T10:45:59.302Z,31.49
2023-05-14T10:48:27.302Z,31.44
2023-05-14T10:50:55.561Z,31.97
2023-05-14T10:53:32.918Z,32.20
2023-05-14T10:56:05.806Z,32.85
2023-05-14T10:58:36.916Z,33.01
2023-05-14T11:01:07.272Z,33.87
2023-05-14T11:03:41.163Z,34.51
2023-05-14T11:06:09.926Z,33.84
2023-05-14T11:08:38.449Z,33.75
2023-05-14T11:11:07.237Z,33.89
2023-05-14T11:13:35.109Z,33.75
2023-05-14T11:16:12.016Z,33.68
2023-05-14T11:18:54.419Z,33.71
2023-05-14T11:21:22.302Z,33.76
2023-05-14T11:23:50.145Z,33.94
2023-05-14T11:26:20.105Z,34.37
2023-05-14T11:28:49.523Z,33.88
2023-05-14T11:31:17.443Z,34.09
2023-05-14T11:33:45.484Z,33.90
2023-05-14T11:36:14.756Z,34.26
2023-05-14T11:38:48.665Z,34.57
2023-05-14T11:41:16.547Z,34.60
2023-05-14T11:43:45.593Z,35.22
2023-05-14T11:46:17.905Z,35.73
2023-05-14T11:48:46.054Z,35.46
2023-05-14T11:51:15.332Z,35.52
2023-05-14T11:53:43.195Z,35.80
2023-05-14T11:56:11.341Z,35.84
2023-05-14T11:58:39.303Z,35.96
2023-05-14T12:01:07.254Z,35.97
2023-05-14T12:03:36.096Z,35.40
2023-05-14T12:06:07.867Z,34.96
2023-05-14T12:08:38.288Z,34.02
2023-05-14T12:11:06.845Z,34.00
2023-05-14T12:13:34.692Z,32.42
2023-05-14T12:16:03.654Z,31.89
2023-05-14T12:18:32.966Z,31.64
2023-05-14T12:21:03.660Z,30.92
2023-05-14T12:23:32.252Z,31.22
2023-05-14T12:26:05.944Z,30.92
2023-05-14T12:28:36.044Z,31.26
2023-05-14T12:31:05.907Z,31.10
2023-05-14T12:33:33.741Z,31.77
2023-05-14T12:36:14.000Z,32.59
2023-05-14T12:38:49.094Z,31.97
2023-05-14T12:41:18.831Z,32.30
2023-05-14T12:43:48.704Z,32.23
2023-05-14T12:46:16.617Z,32.83
2023-05-14T12:48:44.533Z,31.85
2023-05-14T12:51:12.393Z,32.16
2023-05-14T12:53:40.188Z,31.51
2023-05-14T12:56:08.448Z,31.86
2023-05-14T12:58:37.710Z,30.63
2023-05-14T13:01:05.942Z,31.20
2023-05-14T13:03:34.015Z,31.85
2023-05-14T13:06:02.173Z,31.82
2023-05-14T13:08:30.092Z,31.85
2023-05-14T13:10:57.988Z,32.16
2023-05-14T13:13:26.196Z,32.30
2023-05-14T13:15:55.516Z,31.97
2023-05-14T13:18:23.382Z,32.05
2023-05-14T13:20:51.767Z,32.29
2023-05-14T13:23:19.669Z,32.29
2023-05-14T13:25:49.169Z,32.28
2023-05-14T13:28:17.798Z,32.52
2023-05-14T13:31:07.018Z,32.98
2023-05-14T13:33:36.949Z,33.42
2023-05-14T13:36:05.704Z,33.50
2023-05-14T13:38:33.717Z,32.92
2023-05-14T13:41:02.974Z,32.70
2023-05-14T13:43:31.315Z,32.93
2023-05-14T13:45:59.256Z,33.13
2023-05-14T13:48:28.867Z,33.20
2023-05-14T13:50:56.899Z,32.52
2023-05-14T13:53:25.636Z,32.62
2023-05-14T13:55:56.353Z,32.86
2023-05-14T13:58:24.928Z,32.54
2023-05-14T14:00:53.430Z,32.37
2023-05-14T14:03:21.431Z,32.14
2023-05-14T14:05:52.124Z,32.60
2023-05-14T14:08:23.768Z,31.83
2023-05-14T14:10:54.540Z,32.30
2023-05-14T14:13:23.239Z,32.06
2023-05-14T14:15:51.428Z,32.56
2023-05-14T14:18:19.308Z,32.43
2023-05-14T14:20:48.206Z,32.46
2023-05-14T14:23:17.403Z,31.79
2023-05-14T14:25:45.204Z,31.90
2023-05-14T14:28:13.560Z,31.47
2023-05-14T14:30:41.371Z,31.95
2023-05-14T14:33:09.371Z,31.54
2023-05-14T14:35:37.451Z,31.46
2023-05-14T14:38:05.413Z,31.15
2023-05-14T14:40:35.387Z,31.08
2023-05-14T14:43:03.252Z,31.53
2023-05-14T14:45:31.156Z,31.22
2023-05-14T14:48:23.957Z,30.59
2023-05-14T14:50:52.677Z,31.00
2023-05-14T14:53:20.771Z,31.23
2023-05-14T14:55:50.039Z,30.63
2023-05-14T14:58:19.750Z,30.82
2023-05-14T15:00:47.711Z,30.96
2023-05-14T15:03:16.125Z,30.94
2023-05-14T15:05:44.022Z,30.91
2023-05-14T15:08:11.990Z,31.33
2023-05-14T15:10:41.162Z,31.73
2023-05-14T15:13:11.235Z,31.66
2023-05-14T15:15:39.152Z,31.78
2023-05-14T15:18:07.262Z,32.17
2023-05-14T15:20:35.216Z,31.80
2023-05-14T15:23:03.170Z,32.38
2023-05-14T15:25:31.022Z,31.91
2023-05-14T15:27:58.909Z,32.30
2023-05-14T15:30:28.182Z,32.32
2023-05-14T15:32:56.575Z,32.20
2023-05-14T15:35:24.954Z,32.38
2023-05-14T15:37:57.601Z,32.36
2023-05-14T15:40:25.599Z,32.48
2023-05-14T15:42:53.601Z,33.25
2023-05-14T15:45:21.693Z,32.72
2023-05-14T15:47:50.933Z,33.12
2023-05-14T15:50:18.892Z,32.70
2023-05-14T15:52:46.771Z,32.86
2023-05-14T15:55:14.668Z,32.66
2023-05-14T15:57:42.479Z,32.89
2023-05-14T16:00:11.578Z,32.72
2023-05-14T16:02:40.372Z,33.16
2023-05-14T16:05:10.318Z,32.99
2023-05-14T16:07:38.200Z,33.50
2023-05-14T16:10:07.161Z,32.98
2023-05-14T16:12:35.081Z,33.19
2023-05-14T16:15:03.170Z,33.86
2023-05-14T16:17:33.601Z,34.01
2023-05-14T16:20:01.718Z,33.78
2023-05-14T16:22:32.582Z,34.17
2023-05-14T16:25:03.135Z,34.99
2023-05-14T16:27:31.405Z,34.57
2023-05-14T16:29:59.309Z,34.50
2023-05-14T16:32:27.612Z,34.36
2023-05-14T16:34:56.401Z,34.79
2023-05-14T16:37:24.270Z,34.71
2023-05-14T16:39:53.560Z,34.94
2023-05-14T16:42:21.520Z,35.15
2023-05-14T16:44:49.430Z,35.27
2023-05-14T16:47:17.267Z,35.45
2023-05-14T16:49:45.126Z,35.41
2023-05-14T16:52:12.977Z,35.61
2023-05-14T16:54:40.820Z,35.99
2023-05-14T16:57:10.239Z,35.77
2023-05-14T16:59:38.147Z,36.36
2023-05-14T17:02:06.055Z,36.63
2023-05-14T17:04:38.675Z,37.01
2023-05-14T17:07:06.937Z,36.98
2023-05-14T17:09:34.908Z,37.42
2023-05-14T17:12:02.861Z,37.69
2023-05-14T17:14:32.072Z,37.56
2023-05-14T17:16:59.895Z,38.12
2023-05-14T17:19:27.712Z,38.06
2023-05-14T17:21:55.645Z,38.48
2023-05-14T17:24:23.567Z,38.76
2023-05-14T17:26:51.394Z,38.68
2023-05-14T17:29:19.301Z,38.83
2023-05-14T17:31:50.815Z,38.61
2023-05-14T17:34:18.780Z,38.68
2023-05-14T17:36:46.654Z,38.91
2023-05-14T17:39:14.493Z,39.01
2023-05-14T17:41:42.697Z,38.96
2023-05-14T17:44:12.720Z,38.87
2023-05-14T17:46:41.559Z,39.05
2023-05-14T17:49:11.762Z,39.20
2023-05-14T17:51:39.575Z,38.96
2023-05-14T17:54:07.577Z,39.52
2023-05-14T17:56:35.586Z,39.61
2023-05-14T17:59:03.705Z,39.54
2023-05-14T18:01:32.052Z,39.54
2023-05-14T18:04:00.013Z,39.61
2023-05-14T18:06:29.262Z,39.28
2023-05-14T18:08:58.225Z,40.11
2023-05-14T18:11:26.263Z,40.35
2023-05-14T18:13:54.093Z,40.25
2023-05-14T18:16:21.970Z,40.52
2023-05-14T18:18:49.907Z,40.18
2023-05-14T18:21:17.927Z,40.67
2023-05-14T18:23:47.093Z,40.90
2023-05-14T18:26:15.148Z,40.88
2023-05-14T18:28:43.017Z,40.87
2023-05-14T18:31:10.850Z,41.16
2023-05-14T18:33:38.745Z,41.50
2023-05-14T18:36:07.030Z,41.85
2023-05-14T18:38:35.096Z,41.74
2023-05-14T18:41:04.398Z,41.85
2023-05-14T18:43:32.278Z,42.20
2023-05-14T18:46:00.302Z,41.87
2023-05-14T18:48:28.145Z,42.26
2023-05-14T18:50:55.999Z,42.53
2023-05-14T18:53:23.875Z,42.86
2023-05-14T18:55:51.775Z,42.98
2023-05-14T18:58:21.655Z,43.32
2023-05-14T19:00:49.545Z,43.42
2023-05-14T19:03:17.453Z,43.68
2023-05-14T19:05:45.402Z,43.81
2023-05-14T19:08:13.338Z,43.81
2023-05-14T19:10:41.324Z,43.95
2023-05-14T19:13:09.156Z,44.42
2023-05-14T19:15:38.483Z,44.33
2023-05-14T19:18:06.441Z,44.24
2023-05-14T19:20:34.357Z,44.48
2023-05-14T19:23:02.244Z,44.92
2023-05-14T19:25:30.159Z,45.06
2023-05-14T19:27:58.086Z,45.25
2023-05-14T19:30:26.021Z,45.30
2023-05-14T19:32:55.273Z,45.25
2023-05-14T19:35:23.347Z,45.53
2023-05-14T19:37:51.387Z,45.71
2023-05-14T19:40:19.219Z,45.63
2023-05-14T19:42:47.600Z,46.01
2023-05-14T19:45:15.430Z,46.44
2023-05-14T19:47:43.723Z,46.79
2023-05-14T19:50:13.083Z,46.85
2023-05-14T19:52:40.886Z,46.87
2023-05-14T19:55:09.146Z,47.04
2023-05-14T19:57:38.793Z,47.36
2023-05-14T20:00:09.297Z,47.46
2023-05-14T20:02:41.929Z,47.59
2023-05-14T20:05:10.599Z,47.78
2023-05-14T20:07:40.619Z,47.70
2023-05-14T20:10:09.511Z,47.92
2023-05-14T20:12:37.495Z,48.27
2023-05-14T20:15:06.105Z,48.44
2023-05-14T20:17:33.978Z,48.48
2023-05-14T20:20:02.248Z,48.62
2023-05-14T20:22:30.408Z,48.92
2023-05-14T20:24:59.651Z,49.00
2023-05-14T20:27:27.514Z,48.86
2023-05-14T20:29:55.387Z,49.15
2023-05-14T20:32:24.930Z,49.05
2023-05-14T20:34:53.192Z,49.14
2023-05-14T20:37:23.922Z,49.30
2023-05-14T20:39:53.015Z,49.24
2023-05-14T20:42:22.348Z,49.65
2023-05-14T20:44:50.376Z,49.70
2023-05-14T20:47:21.288Z,49.98
2023-05-14T20:49:49.263Z,50.03
2023-05-14T20:52:17.230Z,50.05
2023-05-14T20:54:45.188Z,50.36
2023-05-14T20:57:15.178Z,50.48
2023-05-14T20:59:44.357Z,50.31
2023-05-14T21:02:12.441Z,50.17
2023-05-14T21:04:40.537Z,50.29
2023-05-14T21:07:08.478Z,50.56
2023-05-14T21:09:36.379Z,50.44
2023-05-14T21:12:04.238Z,50.80
2023-05-14T21:14:32.083Z,50.62
2023-05-14T21:17:01.313Z,50.78
2023-05-14T21:19:29.186Z,51.24
2023-05-14T21:21:57.089Z,51.30
2023-05-14T21:24:24.994Z,51.08
2023-05-14T21:26:53.684Z,51.35
2023-05-14T21:29:21.630Z,51.59
2023-05-14T21:31:50.128Z,51.46
2023-05-14T21:34:19.300Z,51.93
2023-05-14T21:36:47.211Z,51.61
2023-05-14T21:39:15.064Z,52.02
2023-05-14T21:41:43.060Z,51.84
2023-05-14T21:44:10.939Z,51.69
2023-05-14T21:46:38.929Z,51.82
2023-05-14T21:49:06.999Z,52.17
2023-05-14T21:51:36.460Z,52.15
2023-05-14T21:54:04.628Z,52.25
2023-05-14T21:56:32.544Z,52.51
2023-05-14T21:59:00.516Z,52.35
2023-05-14T22:01:28.356Z,52.71
2023-05-14T22:03:57.700Z,52.84
2023-05-14T22:06:27.041Z,53.09
2023-05-14T22:08:56.232Z,53.39
2023-05-14T22:11:24.109Z,52.92
2023-05-14T22:13:51.945Z,53.39
2023-05-14T22:16:19.994Z,53.98
2023-05-14T22:18:48.049Z,53.80
2023-05-14T22:21:15.950Z,54.05
2023-05-14T22:23:44.261Z,53.93
2023-05-14T22:26:13.871Z,53.95
2023-05-14T22:28:42.931Z,54.44
2023-05-14T22:31:10.875Z,54.31
2023-05-14T22:33:38.763Z,54.91
2023-05-14T22:36:07.502Z,54.84
2023-05-14T22:38:35.594Z,55.43
2023-05-14T22:41:03.639Z,55.47
2023-05-14T22:43:32.903Z,55.31
2023-05-14T22:46:00.773Z,55.56
2023-05-14T22:48:29.440Z,55.59
2023-05-14T22:50:57.481Z,55.90
2023-05-14T22:53:25.475Z,55.95
2023-05-14T22:55:53.531Z,56.06
2023-05-14T22:58:21.352Z,56.09
2023-05-14T23:00:50.584Z,55.97
2023-05-14T23:03:18.455Z,56.06
2023-05-14T23:05:46.325Z,55.69
2023-05-14T23:08:14.129Z,55.95
2023-05-14T23:10:42.016Z,55.74
2023-05-14T23:13:09.839Z,55.74
2023-05-14T23:15:38.670Z,55.48
2023-05-14T23:18:08.792Z,55.25
2023-05-14T23:20:36.739Z,55.34
2023-05-14T23:23:04.658Z,55.53
2023-05-14T23:25:33.068Z,55.29
2023-05-14T23:28:00.884Z,55.73
2023-05-14T23:30:28.796Z,55.50
2023-05-14T23:32:56.710Z,56.09
2023-05-14T23:35:26.305Z,55.78
2023-05-14T23:37:55.196Z,56.21
2023-05-14T23:40:23.026Z,56.44
2023-05-14T23:42:51.300Z,56.20
2023-05-14T23:45:19.338Z,56.54
2023-05-14T23:47:47.357Z,56.72
2023-05-14T23:50:15.171Z,56.62
2023-05-14T23:52:44.372Z,56.94
2023-05-14T23:55:12.168Z,57.39
2023-05-14T23:57:41.080Z,57.44
